Hovedside
METAR-TAF:

METAR-TAF

Lufthavner :

Caracas, Venezuela

Simón Bolívar internasjonale lufthavn

breddegrad: 10-36N, lengdegrad: 066-59W, høyde over havet: 43 m

Gjeldene værobservasjon

Denne rapporten ble laget for 12 minutter siden, klokken 11:00 UTC
Vind 2 kt fra Øst
Temperatur 26°C
Luftfuktighet 79%
Trykk 1006 hPa
Sikt 10 km eller mer
Få skyer i en høyde av 1600 ft

METAR: SVMI 261100Z 09002KT 9999 FEW016 26/22 Q1006

Tid: 07:12 (11:12 UTC)

Varsel

Denne rapporten ble laget for 13 timer og 12 minutter siden, klokken 22:00 UTC
Varsel gyldig fra 25. klokken 12 UTC til 26. klokken 12 UTC
Vind kt fra Nord
Sikt 10 km eller mer
Få skyer i en høyde av 2000 ft
Blir
fra 25. klokken 15 UTC til 25. klokken 20 UTC
Vind 7 kt fra Nordøst
Spredte skyer i en høyde av 1600 ft

TAF: SVMI 252200Z 2512/2612 00000KT 9999 FEW020 TX31/18Z TN24/08Z BECMG 2515/2520 05007KT SCT016

Værobservasjoner og værvarsel for over 4000 flyplasser (METAR- og TAF-rapporter).

Tilgjengelige stasjoner er representert av de røde og gule prikkene på kartet.

Hold musepekeren over prikken for å se navnet på stasjonen.

Klikk så for å se værobservasjoner og -varsler.

For å forandre kartet kan du klikke på den grønne knappen med svart kryss for å zoome inn, på den grønne knappen med strek for å zoome ut, eller på de grønne pilene for å se tilstøtende kart.


METAR-TAF: